createdAt,value
2022-12-06T00:01:24.289Z,100440.84
2022-12-06T00:03:55.327Z,100445.34
2022-12-06T00:06:23.469Z,100429.59
2022-12-06T00:08:50.858Z,100419.72
2022-12-06T00:11:19.047Z,100408.44
2022-12-06T00:13:46.038Z,100400.38
2022-12-06T00:16:14.105Z,100404.06
2022-12-06T00:18:41.588Z,100404.16
2022-12-06T00:21:15.639Z,100398.12
2022-12-06T00:23:46.393Z,100394.62
2022-12-06T00:26:14.047Z,100399.00
2022-12-06T00:28:40.878Z,100408.78
2022-12-06T00:31:09.282Z,100401.53
2022-12-06T00:33:36.578Z,100391.22
2022-12-06T00:36:05.597Z,100390.09
2022-12-06T00:38:32.636Z,100386.59
2022-12-06T00:41:04.376Z,100391.88
2022-12-06T00:43:31.517Z,100398.12
2022-12-06T00:46:00.970Z,100396.59
2022-12-06T00:48:27.960Z,100399.94
2022-12-06T00:50:55.110Z,100401.84
2022-12-06T00:53:21.760Z,100407.09
2022-12-06T00:55:48.587Z,100409.63
2022-12-06T00:58:15.419Z,100406.87
2022-12-06T01:00:42.827Z,100400.00
2022-12-06T01:03:09.847Z,100406.16
2022-12-06T01:05:41.049Z,100418.28
2022-12-06T01:08:07.729Z,100423.69
2022-12-06T01:10:34.623Z,100436.81
2022-12-06T01:13:01.437Z,100446.44
2022-12-06T01:15:28.039Z,100458.69
2022-12-06T01:17:54.768Z,100456.06
2022-12-06T01:20:21.807Z,100458.66
2022-12-06T01:22:48.529Z,100449.94
2022-12-06T01:25:15.230Z,100449.03
2022-12-06T01:27:41.937Z,100440.31
2022-12-06T01:30:08.740Z,100451.66
2022-12-06T01:32:35.450Z,100454.31
2022-12-06T01:35:02.198Z,100440.31
2022-12-06T01:37:28.811Z,100437.69
2022-12-06T01:39:55.618Z,100433.28
2022-12-06T01:42:22.319Z,100427.97
2022-12-06T01:44:53.490Z,100424.56
2022-12-06T01:47:23.664Z,100428.88
2022-12-06T01:49:53.316Z,100427.19
2022-12-06T01:52:21.097Z,100413.84
2022-12-06T01:54:47.851Z,100435.94
2022-12-06T01:57:15.588Z,100451.66
2022-12-06T01:59:42.549Z,100442.94
2022-12-06T02:02:09.449Z,100427.97
2022-12-06T02:04:36.460Z,100421.00
2022-12-06T02:07:03.507Z,100431.56
2022-12-06T02:09:31.048Z,100441.19
2022-12-06T02:11:57.769Z,100435.94
2022-12-06T02:14:27.477Z,100437.66
2022-12-06T02:17:00.364Z,100431.53
2022-12-06T02:19:27.048Z,100435.00
2022-12-06T02:22:17.780Z,100421.94
2022-12-06T02:24:59.783Z,100434.13
2022-12-06T02:27:32.506Z,100433.19
2022-12-06T02:30:08.215Z,100436.66
2022-12-06T02:32:54.482Z,100434.94
2022-12-06T02:35:40.608Z,100435.78
2022-12-06T02:38:17.900Z,100423.72
2022-12-06T02:40:49.338Z,100421.00
2022-12-06T02:43:17.839Z,100413.94
2022-12-06T02:45:55.981Z,100406.09
2022-12-06T02:48:23.808Z,100406.91
2022-12-06T02:51:01.192Z,100410.41
2022-12-06T02:53:29.620Z,100399.87
2022-12-06T02:55:56.985Z,100398.31
2022-12-06T02:58:23.738Z,100391.38
2022-12-06T03:00:52.838Z,100391.28
2022-12-06T03:03:38.298Z,100399.13
2022-12-06T03:06:15.818Z,100392.19
2022-12-06T03:08:45.287Z,100378.12
2022-12-06T03:11:12.670Z,100383.44
2022-12-06T03:13:48.677Z,100382.56
2022-12-06T03:16:35.837Z,100378.25
2022-12-06T03:19:08.129Z,100368.59
2022-12-06T03:21:58.133Z,100363.38
2022-12-06T03:24:25.757Z,100361.53
2022-12-06T03:26:53.131Z,100356.44
2022-12-06T03:29:21.780Z,100348.53
2022-12-06T03:31:49.507Z,100335.25
2022-12-06T03:34:21.817Z,100320.59
2022-12-06T03:36:50.428Z,100328.50
2022-12-06T03:39:22.128Z,100344.22
2022-12-06T03:41:51.815Z,100376.53
2022-12-06T03:44:19.387Z,100390.50
2022-12-06T03:46:49.323Z,100405.31
2022-12-06T03:49:23.719Z,100382.63
2022-12-06T03:51:50.368Z,100387.81
2022-12-06T03:54:17.277Z,100398.31
2022-12-06T03:56:43.920Z,100398.22
2022-12-06T03:59:11.424Z,100403.09
2022-12-06T04:01:39.134Z,100403.03
2022-12-06T04:04:06.117Z,100415.31
2022-12-06T04:06:33.060Z,100402.25
2022-12-06T04:09:19.926Z,100418.81
2022-12-06T04:11:47.177Z,100425.78
2022-12-06T04:14:13.888Z,100413.63
2022-12-06T04:16:59.289Z,100430.09
2022-12-06T04:19:25.989Z,100447.06
2022-12-06T04:22:11.430Z,100441.78
2022-12-06T04:24:38.290Z,100428.13
2022-12-06T04:27:23.570Z,100436.00
2022-12-06T04:30:08.658Z,100433.09
2022-12-06T04:32:54.048Z,100421.28
2022-12-06T04:35:39.270Z,100430.63
2022-12-06T04:38:24.629Z,100438.25
2022-12-06T04:40:51.317Z,100438.38
2022-12-06T04:43:36.604Z,100442.84
2022-12-06T04:46:03.518Z,100446.66
2022-12-06T04:48:30.256Z,100440.56
2022-12-06T04:50:56.946Z,100455.66
2022-12-06T04:53:23.748Z,100452.06
2022-12-06T04:55:50.579Z,100454.13
2022-12-06T04:58:17.654Z,100447.75
2022-12-06T05:00:44.520Z,100448.69
2022-12-06T05:03:12.188Z,100455.66
2022-12-06T05:05:39.098Z,100459.94
2022-12-06T05:08:06.707Z,100466.22
2022-12-06T05:10:33.903Z,100458.81
2022-12-06T05:13:01.598Z,100459.34
2022-12-06T05:15:29.432Z,100461.22
2022-12-06T05:17:56.409Z,100442.97
2022-12-06T05:20:23.128Z,100441.25
2022-12-06T05:22:49.869Z,100456.63
2022-12-06T05:25:17.331Z,100454.00
2022-12-06T05:27:44.911Z,100454.91
2022-12-06T05:30:11.918Z,100446.94
2022-12-06T05:32:39.641Z,100440.72
2022-12-06T05:35:06.942Z,100443.06
2022-12-06T05:37:33.864Z,100443.59
2022-12-06T05:40:00.889Z,100446.97
2022-12-06T05:42:27.781Z,100443.47
2022-12-06T05:44:54.598Z,100441.03
2022-12-06T05:47:21.342Z,100428.00
2022-12-06T05:49:48.137Z,100427.75
2022-12-06T05:52:14.896Z,100421.47
2022-12-06T05:54:41.614Z,100433.22
2022-12-06T05:57:08.404Z,100435.88
2022-12-06T05:59:35.307Z,100433.28
2022-12-06T06:02:02.112Z,100437.66
2022-12-06T06:04:29.095Z,100428.06
2022-12-06T06:06:55.737Z,100440.31
2022-12-06T06:09:22.679Z,100452.50
2022-12-06T06:11:49.388Z,100441.19
2022-12-06T06:14:16.346Z,100448.19
2022-12-06T06:16:43.017Z,100448.09
2022-12-06T06:19:09.803Z,100440.19
2022-12-06T06:21:36.574Z,100432.94
2022-12-06T06:24:03.320Z,100430.37
2022-12-06T06:26:30.266Z,100425.62
2022-12-06T06:28:56.961Z,100425.09
2022-12-06T06:31:24.094Z,100423.47
2022-12-06T06:33:50.912Z,100424.53
2022-12-06T06:36:17.574Z,100421.06
2022-12-06T06:38:44.307Z,100431.56
2022-12-06T06:41:14.774Z,100446.41
2022-12-06T06:43:41.766Z,100453.41
2022-12-06T06:46:10.242Z,100454.28
2022-12-06T06:48:38.586Z,100467.44
2022-12-06T06:51:06.853Z,100473.53
2022-12-06T06:53:33.981Z,100477.03
2022-12-06T06:56:00.828Z,100473.56
2022-12-06T06:58:28.633Z,100471.78
2022-12-06T07:00:56.327Z,100465.69
2022-12-06T07:03:23.869Z,100461.28
2022-12-06T07:06:01.831Z,100453.41
2022-12-06T07:08:29.258Z,100455.16
2022-12-06T07:10:56.105Z,100463.87
2022-12-06T07:13:24.656Z,100469.12
2022-12-06T07:15:54.032Z,100468.25
2022-12-06T07:18:21.625Z,100473.53
2022-12-06T07:20:48.888Z,100477.87
2022-12-06T07:23:15.900Z,100487.53
2022-12-06T07:25:42.754Z,100487.50
2022-12-06T07:28:09.487Z,100490.09
2022-12-06T07:30:36.287Z,100491.00
2022-12-06T07:33:03.181Z,100486.62
2022-12-06T07:35:48.869Z,100491.84
2022-12-06T07:38:18.877Z,100504.97
2022-12-06T07:41:03.980Z,100499.75
2022-12-06T07:43:50.356Z,100498.00
2022-12-06T07:46:17.300Z,100503.25
2022-12-06T07:48:44.359Z,100503.25
2022-12-06T07:51:11.095Z,100504.13
2022-12-06T07:53:37.885Z,100506.75
2022-12-06T07:56:08.367Z,100507.63
2022-12-06T07:58:36.436Z,100505.00
2022-12-06T08:01:04.396Z,100506.75
2022-12-06T08:03:33.616Z,100512.00
2022-12-06T08:06:00.878Z,100517.25
2022-12-06T08:08:29.181Z,100518.13
2022-12-06T08:10:59.668Z,100516.38
2022-12-06T08:13:26.471Z,100526.88
2022-12-06T08:15:53.904Z,100529.50
2022-12-06T08:18:20.668Z,100526.88
2022-12-06T08:20:47.920Z,100529.47
2022-12-06T08:23:14.829Z,100527.72
2022-12-06T08:25:41.683Z,100527.66
2022-12-06T08:28:08.602Z,100524.25
2022-12-06T08:30:35.759Z,100519.81
2022-12-06T08:33:04.571Z,100522.44
2022-12-06T08:35:31.410Z,100527.66
2022-12-06T08:37:58.482Z,100523.28
2022-12-06T08:40:27.202Z,100515.37
2022-12-06T08:42:53.882Z,100521.50
2022-12-06T08:45:21.094Z,100518.00
2022-12-06T08:47:47.819Z,100520.62
2022-12-06T08:50:14.606Z,100528.53
2022-12-06T08:52:41.292Z,100519.81
2022-12-06T08:55:08.126Z,100518.94
2022-12-06T08:57:34.872Z,100523.34
2022-12-06T09:00:02.185Z,100530.31
2022-12-06T09:02:30.205Z,100525.97
2022-12-06T09:04:59.383Z,100523.25
2022-12-06T09:07:26.787Z,100527.69
2022-12-06T09:09:54.945Z,100524.16
2022-12-06T09:12:22.955Z,100519.66
2022-12-06T09:14:49.693Z,100505.72
2022-12-06T09:17:17.535Z,100500.38
2022-12-06T09:19:44.384Z,100510.97
2022-12-06T09:22:11.096Z,100513.53
2022-12-06T09:24:38.289Z,100516.22
2022-12-06T09:27:04.990Z,100507.44
2022-12-06T09:29:38.876Z,100508.37
2022-12-06T09:32:07.369Z,100496.09
2022-12-06T09:34:34.124Z,100494.31
2022-12-06T09:37:12.480Z,100490.84
2022-12-06T09:39:40.758Z,100487.22
2022-12-06T09:42:16.656Z,100494.13
2022-12-06T09:44:55.287Z,100493.34
2022-12-06T09:47:49.386Z,100489.53
2022-12-06T09:50:18.538Z,100484.41
2022-12-06T09:52:46.315Z,100489.41
2022-12-06T09:55:25.712Z,100484.06
2022-12-06T09:58:05.917Z,100475.31
2022-12-06T10:00:41.295Z,100481.59
2022-12-06T10:03:25.160Z,100481.41
2022-12-06T10:06:01.422Z,100471.72
2022-12-06T10:08:51.658Z,100470.87
2022-12-06T10:11:24.588Z,100465.66
2022-12-06T10:14:06.967Z,100462.91
2022-12-06T10:16:43.102Z,100467.25
2022-12-06T10:19:19.045Z,100471.78
2022-12-06T10:21:45.970Z,100469.97
2022-12-06T10:24:31.951Z,100470.56
2022-12-06T10:27:04.107Z,100466.59
2022-12-06T10:29:49.520Z,100473.12
2022-12-06T10:32:24.221Z,100465.84
2022-12-06T10:34:58.721Z,100463.19
2022-12-06T10:37:39.821Z,100462.00
2022-12-06T10:40:12.669Z,100475.50
2022-12-06T10:42:52.925Z,100473.03
2022-12-06T10:46:08.474Z,100472.81
2022-12-06T10:48:36.490Z,100471.81
2022-12-06T10:51:29.501Z,100467.22
2022-12-06T10:54:02.486Z,100472.59
2022-12-06T10:56:32.344Z,100473.25
2022-12-06T10:59:02.314Z,100461.72
2022-12-06T11:01:36.794Z,100461.91
2022-12-06T11:04:03.557Z,100457.31
2022-12-06T11:06:37.805Z,100466.09
2022-12-06T11:09:27.917Z,100453.50
2022-12-06T11:11:55.130Z,100452.44
2022-12-06T11:14:22.075Z,100457.28
2022-12-06T11:16:59.233Z,100443.81
2022-12-06T11:19:39.678Z,100447.81
2022-12-06T11:22:09.194Z,100444.88
2022-12-06T11:24:47.424Z,100439.69
2022-12-06T11:27:15.953Z,100445.66
2022-12-06T11:29:44.267Z,100440.34
2022-12-06T11:32:13.075Z,100447.56
2022-12-06T11:34:43.868Z,100444.37
2022-12-06T11:37:17.352Z,100439.16
2022-12-06T11:39:44.830Z,100433.06
2022-12-06T11:42:13.893Z,100425.78
2022-12-06T11:44:50.051Z,100423.37
2022-12-06T11:47:19.427Z,100424.84
2022-12-06T11:49:47.152Z,100425.78
2022-12-06T11:52:17.793Z,100429.38
2022-12-06T11:54:54.139Z,100422.84
2022-12-06T11:57:23.432Z,100421.88
2022-12-06T12:00:09.346Z,100416.41
2022-12-06T12:02:36.493Z,100415.81
2022-12-06T12:05:23.397Z,100411.16
2022-12-06T12:08:10.833Z,100420.19
2022-12-06T12:10:39.153Z,100411.75
2022-12-06T12:13:30.406Z,100415.34
2022-12-06T12:16:01.099Z,100424.03
2022-12-06T12:18:33.564Z,100423.37
2022-12-06T12:21:01.734Z,100420.37
2022-12-06T12:23:31.641Z,100416.41
2022-12-06T12:26:00.387Z,100415.47
2022-12-06T12:28:28.950Z,100413.69
2022-12-06T12:30:56.913Z,100408.69
2022-12-06T12:33:26.942Z,100409.38
2022-12-06T12:36:11.101Z,100410.69
2022-12-06T12:38:51.123Z,100411.62
2022-12-06T12:41:24.715Z,100408.31
2022-12-06T12:47:20.186Z,100403.16
2022-12-06T12:50:25.967Z,100403.72
2022-12-06T12:52:53.398Z,100408.19
2022-12-06T12:55:22.459Z,100411.59
2022-12-06T12:57:50.918Z,100413.03
2022-12-06T13:00:20.402Z,100410.03
2022-12-06T13:02:55.984Z,100413.09
2022-12-06T13:05:35.798Z,100416.50
2022-12-06T13:08:12.215Z,100415.03
2022-12-06T13:10:39.852Z,100412.09
2022-12-06T13:13:15.035Z,100414.13
2022-12-06T13:15:47.687Z,100405.69
2022-12-06T13:18:21.154Z,100399.28
2022-12-06T13:20:49.627Z,100401.84
2022-12-06T13:23:20.888Z,100403.09
2022-12-06T13:25:52.831Z,100403.56
2022-12-06T13:28:22.913Z,100399.44
2022-12-06T13:30:53.513Z,100388.66
2022-12-06T13:33:23.023Z,100395.28
2022-12-06T13:35:58.505Z,100391.53
2022-12-06T13:38:30.186Z,100403.78
2022-12-06T13:40:57.761Z,100402.94
2022-12-06T13:43:28.573Z,100395.63
2022-12-06T13:46:07.646Z,100397.38
2022-12-06T13:48:37.528Z,100399.13
2022-12-06T13:51:05.797Z,100396.16
2022-12-06T13:53:36.318Z,100398.19
2022-12-06T13:56:23.335Z,100399.50
2022-12-06T13:58:54.591Z,100393.81
2022-12-06T14:01:39.597Z,100383.06
2022-12-06T14:06:54.731Z,100382.34
2022-12-06T14:09:21.867Z,100387.31
2022-12-06T14:11:48.678Z,100390.53
2022-12-06T14:14:17.359Z,100390.03
2022-12-06T14:16:46.978Z,100398.91
2022-12-06T14:19:23.623Z,100391.84
2022-12-06T14:21:56.118Z,100389.97
2022-12-06T14:24:36.461Z,100395.94
2022-12-06T14:27:16.701Z,100400.41
2022-12-06T14:29:44.698Z,100399.78
2022-12-06T14:32:11.500Z,100400.06
2022-12-06T14:34:38.223Z,100400.00
2022-12-06T14:37:20.894Z,100403.44
2022-12-06T14:39:56.745Z,100399.22
2022-12-06T14:42:42.079Z,100410.78
2022-12-06T14:45:19.011Z,100411.22
2022-12-06T14:47:45.950Z,100407.25
2022-12-06T14:50:29.835Z,100409.09
2022-12-06T14:52:58.038Z,100404.56
2022-12-06T14:55:26.395Z,100412.78
2022-12-06T14:58:05.513Z,100409.53
2022-12-06T15:00:41.254Z,100414.88
2022-12-06T15:03:09.091Z,100418.72
2022-12-06T15:05:42.387Z,100421.34
2022-12-06T15:08:19.716Z,100415.50
2022-12-06T15:10:58.953Z,100411.31
2022-12-06T15:13:25.698Z,100413.25
2022-12-06T15:16:01.610Z,100410.00
2022-12-06T15:18:30.372Z,100420.28
2022-12-06T15:20:57.294Z,100417.81
2022-12-06T15:23:27.528Z,100412.84
2022-12-06T15:25:56.407Z,100425.97
2022-12-06T15:28:23.254Z,100422.50
2022-12-06T15:30:52.224Z,100412.00
2022-12-06T15:33:20.275Z,100415.66
2022-12-06T15:35:47.158Z,100420.03
2022-12-06T15:38:16.244Z,100420.03
2022-12-06T15:40:44.690Z,100434.09
2022-12-06T15:43:24.318Z,100435.91
2022-12-06T15:45:51.033Z,100432.38
2022-12-06T15:48:17.786Z,100442.94
2022-12-06T15:50:46.882Z,100443.81
2022-12-06T15:53:18.117Z,100449.06
2022-12-06T15:55:44.918Z,100443.81
2022-12-06T15:58:14.449Z,100449.06
2022-12-06T16:00:43.249Z,100449.06
2022-12-06T16:03:10.296Z,100442.94
2022-12-06T16:05:37.318Z,100440.31
2022-12-06T16:08:06.310Z,100442.88
2022-12-06T16:11:03.108Z,100445.50
2022-12-06T16:13:23.868Z,100444.66
2022-12-06T16:15:51.712Z,100438.53
2022-12-06T16:18:18.572Z,100439.41
2022-12-06T16:20:45.288Z,100435.88
2022-12-06T16:24:04.584Z,100445.47
2022-12-06T16:26:21.993Z,100443.75
2022-12-06T16:28:48.762Z,100442.84
2022-12-06T16:31:15.731Z,100446.34
2022-12-06T16:33:42.541Z,100443.72
2022-12-06T16:36:21.250Z,100438.50
2022-12-06T16:38:54.306Z,100446.31
2022-12-06T16:41:26.516Z,100443.72
2022-12-06T16:43:53.449Z,100448.09
2022-12-06T16:46:22.845Z,100442.88
2022-12-06T16:48:55.622Z,100451.59
2022-12-06T16:51:24.160Z,100452.53
2022-12-06T16:53:51.314Z,100451.63
2022-12-06T16:56:20.442Z,100461.22
2022-12-06T16:58:47.515Z,100463.84
2022-12-06T17:01:26.659Z,100461.25
2022-12-06T17:03:54.850Z,100464.75
2022-12-06T17:06:21.870Z,100474.28
2022-12-06T17:08:49.162Z,100474.25
2022-12-06T17:11:37.196Z,100478.63
2022-12-06T17:14:04.838Z,100474.25
2022-12-06T17:16:33.648Z,100482.16
2022-12-06T17:19:00.771Z,100478.66
2022-12-06T17:21:27.817Z,100469.97
2022-12-06T17:24:01.402Z,100471.69
2022-12-06T17:26:33.097Z,100472.56
2022-12-06T17:29:03.442Z,100478.66
2022-12-06T17:31:30.407Z,100470.81
2022-12-06T17:34:19.351Z,100476.94
2022-12-06T17:36:50.497Z,100489.13
2022-12-06T17:39:18.278Z,100476.03
2022-12-06T17:42:05.642Z,100480.41
2022-12-06T17:44:32.884Z,100476.03
2022-12-06T17:46:59.635Z,100474.25
2022-12-06T17:49:26.920Z,100466.44
2022-12-06T17:51:54.245Z,100480.38
2022-12-06T17:54:21.687Z,100482.19
2022-12-06T17:56:49.802Z,100474.34
2022-12-06T17:59:17.677Z,100474.34
2022-12-06T18:02:13.454Z,100480.41
2022-12-06T18:04:31.736Z,100477.75
2022-12-06T18:06:58.809Z,100482.13
2022-12-06T18:09:27.637Z,100487.38
2022-12-06T18:11:56.079Z,100485.66
2022-12-06T18:14:23.879Z,100481.88
2022-12-06T18:16:50.777Z,100489.91
2022-12-06T18:19:18.922Z,100484.47
2022-12-06T18:21:46.377Z,100486.00
2022-12-06T18:24:23.229Z,100486.84
2022-12-06T18:26:52.213Z,100480.78
2022-12-06T18:29:21.644Z,100476.75
2022-12-06T18:31:49.013Z,100489.84
2022-12-06T18:34:16.369Z,100484.34
2022-12-06T18:36:43.128Z,100481.28
2022-12-06T18:39:14.963Z,100473.16
2022-12-06T18:41:42.579Z,100474.97
2022-12-06T18:44:10.415Z,100480.25
2022-12-06T18:46:39.179Z,100486.41
2022-12-06T18:49:06.771Z,100484.75
2022-12-06T18:51:34.796Z,100483.91
2022-12-06T18:54:03.386Z,100488.22
2022-12-06T18:56:30.531Z,100480.50
2022-12-06T18:58:59.036Z,100477.81
2022-12-06T19:01:28.059Z,100472.56
2022-12-06T19:03:56.050Z,100471.75
2022-12-06T19:06:26.894Z,100471.03
2022-12-06T19:08:58.107Z,100470.00
2022-12-06T19:11:25.079Z,100469.03
2022-12-06T19:13:56.257Z,100461.19
2022-12-06T19:16:33.720Z,100458.59
2022-12-06T19:19:01.722Z,100456.00
2022-12-06T19:21:28.836Z,100453.22
2022-12-06T19:23:56.523Z,100430.25
2022-12-06T19:26:24.309Z,100434.31
2022-12-06T19:28:51.102Z,100432.75
2022-12-06T19:31:18.305Z,100447.75
2022-12-06T19:33:46.616Z,100444.56
2022-12-06T19:36:18.677Z,100449.31
2022-12-06T19:38:45.540Z,100444.56
2022-12-06T19:41:17.888Z,100435.62
2022-12-06T19:44:03.298Z,100433.16
2022-12-06T19:46:30.958Z,100431.66
2022-12-06T19:48:59.046Z,100432.44
2022-12-06T19:51:29.413Z,100434.16
2022-12-06T19:53:58.235Z,100422.38
2022-12-06T19:56:25.646Z,100430.28
2022-12-06T19:58:52.442Z,100417.44
2022-12-06T20:01:21.808Z,100420.06
2022-12-06T20:03:48.934Z,100426.19
2022-12-06T20:06:18.357Z,100435.47
2022-12-06T20:08:45.916Z,100437.16
2022-12-06T20:11:33.322Z,100435.59
2022-12-06T20:14:03.795Z,100444.34
2022-12-06T20:16:30.473Z,100444.94
2022-12-06T20:18:57.820Z,100446.19
2022-12-06T20:21:24.998Z,100449.53
2022-12-06T20:23:51.883Z,100445.38
2022-12-06T20:26:18.713Z,100453.19
2022-12-06T20:28:46.336Z,100448.19
2022-12-06T20:31:14.990Z,100446.50
2022-12-06T20:33:42.487Z,100440.50
2022-12-06T20:36:12.766Z,100440.34
2022-12-06T20:38:39.604Z,100439.59
2022-12-06T20:41:09.419Z,100439.12
2022-12-06T20:43:56.230Z,100437.97
2022-12-06T20:46:25.434Z,100446.53
2022-12-06T20:48:53.269Z,100447.97
2022-12-06T20:51:22.866Z,100456.88
2022-12-06T20:53:50.039Z,100455.75
2022-12-06T20:56:19.328Z,100460.91
2022-12-06T20:58:47.445Z,100456.63
2022-12-06T21:01:15.360Z,100443.78
2022-12-06T21:03:42.184Z,100443.69
2022-12-06T21:06:10.395Z,100431.84
2022-12-06T21:08:37.721Z,100435.56
2022-12-06T21:13:55.783Z,100427.44
2022-12-06T21:16:23.922Z,100427.03
2022-12-06T21:19:01.562Z,100429.31
2022-12-06T21:21:29.955Z,100431.97
2022-12-06T21:24:00.705Z,100435.50
2022-12-06T21:26:28.534Z,100429.69
2022-12-06T21:28:55.950Z,100434.09
2022-12-06T21:31:33.032Z,100434.13
2022-12-06T21:34:19.758Z,100449.88
2022-12-06T21:36:46.588Z,100444.94
2022-12-06T21:39:14.795Z,100442.59
2022-12-06T21:41:46.113Z,100441.94
2022-12-06T21:44:12.888Z,100444.28
2022-12-06T21:46:39.897Z,100446.47
2022-12-06T21:49:07.136Z,100446.66
2022-12-06T21:51:36.767Z,100448.56
2022-12-06T21:54:07.864Z,100447.00
2022-12-06T21:56:35.353Z,100444.34
2022-12-06T21:59:10.715Z,100438.09
2022-12-06T22:01:39.085Z,100447.66
2022-12-06T22:04:14.907Z,100434.97
2022-12-06T22:06:41.811Z,100429.38
2022-12-06T22:09:28.581Z,100422.38
2022-12-06T22:12:04.704Z,100426.78
2022-12-06T22:14:31.479Z,100433.22
2022-12-06T22:16:58.123Z,100426.47
2022-12-06T22:19:27.542Z,100431.62
2022-12-06T22:21:55.518Z,100435.50
2022-12-06T22:24:42.240Z,100428.88
2022-12-06T22:27:11.713Z,100430.53
2022-12-06T22:29:38.540Z,100421.78
2022-12-06T22:32:05.232Z,100419.94
2022-12-06T22:34:31.946Z,100425.84
2022-12-06T22:36:58.603Z,100414.09
2022-12-06T22:39:25.278Z,100418.97
2022-12-06T22:41:54.475Z,100413.47
2022-12-06T22:44:21.491Z,100409.47
2022-12-06T22:46:48.238Z,100407.88
2022-12-06T22:49:17.972Z,100415.03
2022-12-06T22:51:45.980Z,100424.38
2022-12-06T22:54:20.411Z,100428.59
2022-12-06T22:56:50.303Z,100424.44
2022-12-06T22:59:17.635Z,100425.88
2022-12-06T23:01:44.916Z,100421.31
2022-12-06T23:04:12.583Z,100416.34
2022-12-06T23:06:39.725Z,100407.91
2022-12-06T23:09:07.947Z,100408.88
2022-12-06T23:11:35.549Z,100405.63
2022-12-06T23:14:04.588Z,100405.12
2022-12-06T23:16:32.355Z,100401.62
2022-12-06T23:19:00.195Z,100398.62
2022-12-06T23:21:28.700Z,100400.63
2022-12-06T23:23:57.136Z,100395.31
2022-12-06T23:26:25.508Z,100397.50
2022-12-06T23:28:52.732Z,100399.87
2022-12-06T23:31:21.277Z,100399.09
2022-12-06T23:33:51.736Z,100400.56
2022-12-06T23:36:26.571Z,100397.66
2022-12-06T23:38:53.520Z,100405.53
2022-12-06T23:41:21.919Z,100399.56
2022-12-06T23:43:49.342Z,100395.56
2022-12-06T23:46:21.908Z,100393.88
2022-12-06T23:48:49.645Z,100399.66
2022-12-06T23:51:17.959Z,100396.44
2022-12-06T23:53:45.401Z,100396.03
2022-12-06T23:56:16.750Z,100395.88
2022-12-06T23:58:44.127Z,100389.44
